createdAt,value
2023-02-16T15:45:33.259Z,24.90
2023-02-16T15:48:15.334Z,22.80
2023-02-16T15:50:43.841Z,20.30
2023-02-16T15:53:13.564Z,21.00
2023-02-16T15:55:45.924Z,22.10
2023-02-16T15:58:14.908Z,16.70
2023-02-16T16:00:44.109Z,17.00
2023-02-16T16:03:15.430Z,19.40
2023-02-16T16:05:53.155Z,17.50
2023-02-16T16:08:21.227Z,18.90
2023-02-16T16:10:49.474Z,18.10
2023-02-16T16:13:23.694Z,17.60
2023-02-16T16:15:52.019Z,21.30
2023-02-16T16:18:39.746Z,17.50
2023-02-16T16:21:34.341Z,19.10
2023-02-16T16:24:09.900Z,21.50
2023-02-16T16:26:52.392Z,20.20
2023-02-16T16:29:37.344Z,21.00
2023-02-16T16:32:06.794Z,23.10
2023-02-16T16:34:39.265Z,19.70
2023-02-16T16:37:31.857Z,22.40
2023-02-16T16:40:06.973Z,22.60
2023-02-16T16:42:39.175Z,21.30
2023-02-16T16:45:33.281Z,21.10
2023-02-16T16:48:02.350Z,23.00
2023-02-16T16:50:31.991Z,23.30
2023-02-16T16:53:00.338Z,21.60
2023-02-16T16:55:30.639Z,21.70
2023-02-16T16:58:08.157Z,23.80
2023-02-16T17:00:38.559Z,22.10
2023-02-16T17:03:07.985Z,25.30
2023-02-16T17:05:38.525Z,22.80
2023-02-16T17:08:07.136Z,24.80
2023-02-16T17:10:36.096Z,20.80
2023-02-16T17:13:04.374Z,18.30
2023-02-16T17:15:34.178Z,16.60
2023-02-16T17:18:02.360Z,16.50
2023-02-16T17:20:30.453Z,18.00
2023-02-16T17:23:04.664Z,22.80
2023-02-16T17:25:33.937Z,22.60
2023-02-16T17:28:02.432Z,23.30
2023-02-16T17:30:31.184Z,22.40
2023-02-16T17:32:59.398Z,21.20
2023-02-16T17:35:27.781Z,18.90
2023-02-16T17:37:55.849Z,17.20
2023-02-16T17:40:24.018Z,19.80
2023-02-16T17:42:52.079Z,17.90
2023-02-16T17:45:22.213Z,16.30
2023-02-16T17:47:51.294Z,15.30
2023-02-16T17:50:20.228Z,15.20
2023-02-16T17:52:48.474Z,15.40
2023-02-16T17:55:16.942Z,17.10
2023-02-16T17:57:45.229Z,14.60
2023-02-16T18:00:14.698Z,15.20
2023-02-16T18:02:42.799Z,15.90
2023-02-16T18:05:10.985Z,18.40
2023-02-16T18:07:39.153Z,14.40
2023-02-16T18:10:08.560Z,16.70
2023-02-16T18:12:36.681Z,14.40
2023-02-16T18:15:05.307Z,13.40
2023-02-16T18:17:33.377Z,12.30
2023-02-16T18:20:02.570Z,15.60
2023-02-16T18:22:30.750Z,16.60
2023-02-16T18:24:59.144Z,13.00
2023-02-16T18:27:29.359Z,12.90
2023-02-16T18:29:57.480Z,13.50
2023-02-16T18:32:25.703Z,12.80
2023-02-16T18:34:53.982Z,15.60
2023-02-16T18:37:21.963Z,16.00
2023-02-16T18:39:49.943Z,16.00
2023-02-16T18:42:18.306Z,14.60
2023-02-16T18:44:48.234Z,14.00
2023-02-16T18:47:16.398Z,14.00
2023-02-16T18:49:44.467Z,16.30
2023-02-16T18:52:12.641Z,13.80
2023-02-16T18:54:41.025Z,15.10
2023-02-16T18:57:09.306Z,15.50
2023-02-16T18:59:37.369Z,15.80
2023-02-16T19:02:05.449Z,17.20
2023-02-16T19:04:33.810Z,21.30
2023-02-16T19:07:01.841Z,26.50
2023-02-16T19:09:32.427Z,23.80
2023-02-16T19:12:00.496Z,25.00
2023-02-16T19:14:28.558Z,25.60
2023-02-16T19:16:56.750Z,19.70
2023-02-16T19:19:24.805Z,23.00
2023-02-16T19:21:52.876Z,21.10
2023-02-16T19:24:20.788Z,27.20
2023-02-16T19:26:48.824Z,26.80
2023-02-16T19:29:16.896Z,25.40
2023-02-16T19:31:45.108Z,26.20
2023-02-16T19:34:13.545Z,21.70
2023-02-16T19:36:41.725Z,22.90
2023-02-16T19:39:12.047Z,20.40
2023-02-16T19:41:41.123Z,19.90
2023-02-16T19:44:12.972Z,21.20
2023-02-16T19:46:42.367Z,19.80
2023-02-16T19:49:12.826Z,22.70
2023-02-16T19:51:41.515Z,19.90
2023-02-16T19:54:09.691Z,18.40
2023-02-16T19:56:40.505Z,15.50
2023-02-16T19:59:08.896Z,19.00
2023-02-16T20:01:37.039Z,16.60
2023-02-16T20:04:05.262Z,16.10
2023-02-16T20:06:34.562Z,17.20
2023-02-16T20:09:03.368Z,17.00
2023-02-16T20:11:31.529Z,15.60
2023-02-16T20:13:59.994Z,15.90
2023-02-16T20:16:28.087Z,15.50
2023-02-16T20:18:57.073Z,16.10
2023-02-16T20:21:27.093Z,17.80
2023-02-16T20:24:00.021Z,15.00
2023-02-16T20:26:36.132Z,16.20
2023-02-16T20:29:05.136Z,13.40
2023-02-16T20:31:54.895Z,17.20
2023-02-16T20:34:23.699Z,14.80
2023-02-16T20:36:52.049Z,13.20
2023-02-16T20:39:20.661Z,12.50
2023-02-16T20:41:48.770Z,14.00
2023-02-16T20:44:16.747Z,12.40
2023-02-16T20:46:44.805Z,15.20
2023-02-16T20:49:13.677Z,13.10
2023-02-16T20:51:41.736Z,14.60
2023-02-16T20:54:09.905Z,12.00
2023-02-16T20:56:38.290Z,13.40
2023-02-16T20:59:06.368Z,13.00
2023-02-16T21:01:40.094Z,12.20
2023-02-16T21:04:08.353Z,13.50
2023-02-16T21:06:36.670Z,13.40
2023-02-16T21:09:05.418Z,14.10
2023-02-16T21:11:33.788Z,13.00
2023-02-16T21:14:02.674Z,10.90
2023-02-16T21:16:30.742Z,12.50
2023-02-16T21:18:58.814Z,13.20
2023-02-16T21:21:26.882Z,14.80
2023-02-16T21:23:55.561Z,14.10
2023-02-16T21:26:24.771Z,13.40
2023-02-16T21:28:53.153Z,11.00
2023-02-16T21:31:23.958Z,12.90
2023-02-16T21:33:52.970Z,12.30
2023-02-16T21:36:22.839Z,12.60
2023-02-16T21:38:50.939Z,12.30
2023-02-16T21:41:29.284Z,11.20
2023-02-16T21:44:01.039Z,11.80
2023-02-16T21:46:34.444Z,12.30
2023-02-16T21:49:02.707Z,14.40
2023-02-16T21:51:33.128Z,13.10
2023-02-16T21:54:01.204Z,13.50
2023-02-16T21:56:39.517Z,11.20
2023-02-16T21:59:09.332Z,10.70
2023-02-16T22:01:42.836Z,10.30
2023-02-16T22:04:12.125Z,10.60
2023-02-16T22:06:42.649Z,11.90
2023-02-16T22:09:13.161Z,11.90
2023-02-16T22:11:41.265Z,11.00
2023-02-16T22:14:09.429Z,10.60
2023-02-16T22:16:38.179Z,11.00
2023-02-16T22:19:08.042Z,10.10
2023-02-16T22:21:37.488Z,9.80
2023-02-16T22:24:06.226Z,10.30
2023-02-16T22:26:35.153Z,10.30
2023-02-16T22:29:04.173Z,11.20
2023-02-16T22:31:32.470Z,11.20
2023-02-16T22:34:08.572Z,9.80
2023-02-16T22:36:36.835Z,10.00
2023-02-16T22:39:04.905Z,12.30
2023-02-16T22:41:33.486Z,9.70
2023-02-16T22:44:01.657Z,10.30
2023-02-16T22:46:29.840Z,11.20
2023-02-16T22:49:02.207Z,10.20
2023-02-16T22:51:30.781Z,11.80
2023-02-16T22:53:59.275Z,9.90
2023-02-16T22:56:27.402Z,10.70
2023-02-16T22:58:57.457Z,10.60
2023-02-16T23:01:27.058Z,10.60
2023-02-16T23:03:59.202Z,11.20
2023-02-16T23:06:31.942Z,9.30
2023-02-16T23:09:01.411Z,9.40
2023-02-16T23:11:29.843Z,9.90
2023-02-16T23:13:57.986Z,9.60
2023-02-16T23:16:26.759Z,8.30
2023-02-16T23:18:56.369Z,10.50
2023-02-16T23:21:26.494Z,10.70
2023-02-16T23:23:54.571Z,9.20
2023-02-16T23:26:23.765Z,8.20
2023-02-16T23:28:54.611Z,10.20
2023-02-16T23:31:23.276Z,9.50
2023-02-16T23:33:51.561Z,9.90
2023-02-16T23:36:19.638Z,8.40
2023-02-16T23:38:47.700Z,8.70
2023-02-16T23:41:15.869Z,8.50
2023-02-16T23:43:43.961Z,8.20
2023-02-16T23:46:12.294Z,9.50
2023-02-16T23:48:40.404Z,8.70
2023-02-16T23:51:10.547Z,8.90
2023-02-16T23:53:40.028Z,9.10
2023-02-16T23:56:11.221Z,8.20
2023-02-16T23:58:41.443Z,10.10
